Time;durP1;ratioP1;P1;durP2;ratioP2;P2;SDS_P1;SDS_P2;PMS_P1;PMS_P2;Temp;Humidity;BMP_temperature;BMP_pressure;BME280_temperature;BME280_humidity;BME280_pressure;Samples;Min_cycle;Max_cycle;Signal;HPM_P1;HPM_P2
2022/04/13 00:02:44;;;;;;;10.90;5.80;;;5.00;96.50;;;3.02;71.49;100646.13;10336919;28;96647;-80
2022/04/13 00:07:48;;;;;;;14.13;5.70;;;4.90;96.20;;;2.92;71.62;100652.00;10336287;28;96681;-81
2022/04/13 00:12:50;;;;;;;11.27;5.40;;;4.80;96.20;;;2.86;71.68;100659.47;10388473;28;96563;-80
2022/04/13 00:17:54;;;;;;;10.83;5.77;;;4.80;96.80;;;2.80;72.18;100662.53;10366704;28;98473;-81
2022/04/13 00:22:56;;;;;;;8.67;4.90;;;4.70;97.20;;;2.74;72.67;100665.56;10347389;28;96687;-81
2022/04/13 00:28:00;;;;;;;11.03;5.80;;;4.60;99.00;;;2.66;72.88;100668.72;10367850;28;96604;-80
2022/04/13 00:33:04;;;;;;;9.93;5.70;;;4.60;98.80;;;2.63;73.05;100671.56;10314173;28;96465;-80
2022/04/13 00:38:07;;;;;;;10.57;5.27;;;4.50;98.10;;;2.57;73.56;100671.97;10338831;28;96974;-81
2022/04/13 00:43:10;;;;;;;13.30;6.30;;;4.50;97.70;;;2.54;73.61;100669.56;10328428;28;96633;-80
2022/04/13 00:48:24;;;;;;;15.17;6.27;;;4.40;98.40;;;2.51;73.89;100659.28;10342639;28;97987;-80
2022/04/13 00:53:29;;;;;;;12.73;5.80;;;4.40;99.60;;;2.49;73.82;100664.63;10364305;28;97336;-80
2022/04/13 00:58:33;;;;;;;10.13;6.10;;;4.40;99.90;;;2.44;74.03;100673.75;10345521;28;97545;-80
2022/04/13 01:03:37;;;;;;;10.37;5.37;;;4.30;99.70;;;2.39;73.99;100663.56;10362624;28;96657;-81
2022/04/13 01:08:42;;;;;;;9.77;5.50;;;4.20;99.90;;;2.33;74.41;100679.72;10356879;28;96526;-81
2022/04/13 01:13:45;;;;;;;9.67;4.60;;;4.20;99.90;;;2.28;74.00;100676.56;10347627;28;96614;-81
2022/04/13 01:18:48;;;;;;;9.47;5.67;;;4.20;99.90;;;2.21;74.15;100662.19;10305718;28;98280;-81
2022/04/13 01:23:51;;;;;;;9.13;4.97;;;4.10;99.90;;;2.19;74.66;100671.97;10330142;28;96621;-80
2022/04/13 01:28:54;;;;;;;9.80;5.17;;;4.10;99.90;;;2.12;74.77;100669.75;10352598;28;96500;-81
2022/04/13 01:33:59;;;;;;;11.13;5.83;;;4.00;99.90;;;2.08;74.89;100680.53;10353410;28;98265;-82
2022/04/13 01:39:05;;;;;;;10.93;6.23;;;3.90;99.90;;;2.05;75.07;100691.25;10355720;28;96429;-80
2022/04/13 01:44:07;;;;;;;11.17;5.23;;;3.90;99.90;;;2.02;75.02;100701.91;10371885;28;97455;-81
2022/04/13 01:49:09;;;;;;;12.23;5.77;;;3.90;99.90;;;2.00;75.51;100703.81;10335419;28;96640;-81
2022/04/13 01:54:12;;;;;;;10.93;5.73;;;3.90;99.90;;;1.98;75.42;100713.53;10364398;28;96326;-80
2022/04/13 01:59:15;;;;;;;12.93;5.70;;;3.80;99.90;;;1.97;75.14;100709.22;10353844;28;96582;-80
2022/04/13 02:04:24;;;;;;;12.87;5.57;;;3.80;99.90;;;1.95;75.02;100706.72;10369324;28;96965;-80
2022/04/13 02:09:27;;;;;;;9.70;5.50;;;3.80;99.90;;;1.92;75.23;100708.69;10361462;28;96456;-81
2022/04/13 02:14:30;;;;;;;9.87;4.80;;;3.80;99.90;;;1.92;74.72;100706.06;10350575;28;96508;-81
2022/04/13 02:19:33;;;;;;;9.13;4.90;;;3.80;99.90;;;1.91;74.86;100714.88;10358350;28;98187;-81
2022/04/13 02:24:39;;;;;;;12.13;4.63;;;3.80;99.90;;;1.86;74.99;100710.78;10364816;28;96543;-80
2022/04/13 02:29:46;;;;;;;8.13;4.67;;;3.70;99.90;;;1.82;75.14;100711.91;10323950;28;96481;-81
2022/04/13 02:34:50;;;;;;;8.97;3.93;;;3.70;99.90;;;1.77;75.14;100703.50;10343355;28;97002;-80
2022/04/13 02:39:53;;;;;;;7.20;4.10;;;3.70;99.90;;;1.72;75.42;100705.59;10371205;28;97050;-80
2022/04/13 02:44:55;;;;;;;8.53;4.53;;;3.60;99.90;;;1.67;75.29;100705.03;10339891;28;96464;-80
2022/04/13 02:50:00;;;;;;;6.70;4.23;;;3.60;99.90;;;1.61;75.27;100716.75;10322827;28;96554;-80
2022/04/13 02:55:04;;;;;;;7.40;4.20;;;3.50;99.90;;;1.58;75.64;100718.75;10337377;28;96575;-80
2022/04/13 03:00:07;;;;;;;8.93;4.50;;;3.40;99.90;;;1.56;75.47;100718.84;10351323;28;96643;-80
2022/04/13 03:05:11;;;;;;;9.33;5.10;;;3.50;99.90;;;1.51;75.83;100714.84;10375586;28;96551;-80
2022/04/13 03:10:14;;;;;;;8.50;5.03;;;3.40;99.90;;;1.48;76.08;100721.09;10357196;28;96528;-80
2022/04/13 03:15:19;;;;;;;7.23;4.37;;;3.40;99.90;;;1.43;75.82;100724.94;10361247;28;96604;-81
2022/04/13 03:20:22;;;;;;;11.77;5.07;;;3.30;99.90;;;1.38;76.38;100727.88;10377535;28;96868;-80
2022/04/13 03:25:25;;;;;;;12.03;5.70;;;3.30;99.90;;;1.34;76.42;100724.59;10347010;28;96608;-80
2022/04/13 03:30:28;;;;;;;9.83;4.63;;;3.20;99.90;;;1.29;76.59;100728.44;10332688;28;97071;-80
2022/04/13 03:35:31;;;;;;;10.30;5.50;;;3.20;99.90;;;1.24;76.92;100730.47;10322953;28;96571;-79
2022/04/13 03:40:33;;;;;;;8.80;4.83;;;3.10;99.90;;;1.21;77.10;100731.53;10381444;28;96658;-79
2022/04/13 03:45:36;;;;;;;9.17;4.60;;;3.10;99.90;;;1.19;76.78;100732.53;10325163;28;96612;-79
2022/04/13 03:50:39;;;;;;;8.17;4.40;;;3.10;99.90;;;1.17;76.79;100745.72;10369085;28;96499;-79
2022/04/13 03:55:43;;;;;;;7.73;4.80;;;3.10;99.90;;;1.16;76.84;100753.69;10368173;28;97515;-80
2022/04/13 04:00:45;;;;;;;7.80;4.40;;;3.10;99.90;;;1.13;76.77;100766.94;10350635;28;96585;-79
2022/04/13 04:05:48;;;;;;;7.73;4.50;;;3.10;99.90;;;1.10;76.96;100764.53;10292606;28;96997;-80
2022/04/13 04:10:52;;;;;;;11.10;5.43;;;3.00;99.90;;;1.06;77.39;100764.72;10331466;28;96407;-80
2022/04/13 04:15:55;;;;;;;10.37;5.20;;;3.00;99.90;;;1.07;77.28;100763.75;10361569;28;98347;-81
2022/04/13 04:20:58;;;;;;;11.10;5.53;;;2.90;99.90;;;1.08;77.45;100769.88;10324258;28;97274;-82
2022/04/13 04:26:01;;;;;;;9.43;5.37;;;2.90;99.90;;;1.12;78.03;100775.75;10295314;28;96616;-80
2022/04/13 04:31:04;;;;;;;15.60;5.67;;;3.00;99.90;;;1.16;78.47;100772.84;10304403;28;96798;-81
2022/04/13 04:36:10;;;;;;;15.73;6.50;;;3.00;99.90;;;1.27;78.22;100778.28;10368175;28;96671;-80
2022/04/13 04:41:13;;;;;;;12.13;4.80;;;3.10;99.90;;;1.41;78.49;100779.19;10368726;28;96531;-80
2022/04/13 04:46:16;;;;;;;11.17;4.90;;;3.20;99.90;;;1.56;78.29;100780.84;10359236;28;98372;-80
2022/04/13 04:51:20;;;;;;;9.40;4.67;;;3.30;99.90;;;1.73;78.50;100785.88;10329280;28;96620;-79
2022/04/13 04:56:23;;;;;;;8.30;4.20;;;3.40;99.90;;;1.95;78.43;100792.38;10349772;28;96610;-80
2022/04/13 05:01:26;;;;;;;11.13;4.17;;;3.60;99.90;;;2.16;78.39;100793.63;10353779;28;96617;-79
2022/04/13 05:06:29;;;;;;;7.73;4.27;;;3.80;99.90;;;2.40;77.28;100801.69;10341427;28;96578;-81
2022/04/13 05:11:32;;;;;;;8.23;3.93;;;4.00;99.90;;;2.64;76.97;100807.94;10325908;28;97412;-81
2022/04/13 05:16:38;;;;;;;8.23;4.37;;;4.20;99.90;;;2.88;76.53;100802.81;10347783;28;96623;-81
2022/04/13 05:21:42;;;;;;;9.00;4.27;;;4.50;99.90;;;3.14;75.82;100811.53;10358369;28;96580;-81
2022/04/13 05:26:45;;;;;;;9.70;4.33;;;4.70;99.90;;;3.41;75.05;100818.44;10331774;28;96633;-81
2022/04/13 05:31:48;;;;;;;8.00;4.00;;;5.00;99.90;;;3.66;74.45;100821.03;10325872;28;96714;-79
2022/04/13 05:36:51;;;;;;;6.93;4.17;;;5.20;99.90;;;3.96;73.43;100820.66;10373131;28;96645;-80
2022/04/13 05:41:54;;;;;;;13.57;5.70;;;5.50;99.90;;;4.25;71.39;100833.47;10378565;28;96482;-81
2022/04/13 05:46:57;;;;;;;8.97;5.20;;;5.70;99.90;;;4.53;69.04;100829.66;10330187;28;96573;-81
2022/04/13 05:51:59;;;;;;;8.90;4.77;;;6.00;98.80;;;4.82;67.49;100838.03;10316441;28;96520;-81
2022/04/13 05:57:03;;;;;;;13.43;5.50;;;6.30;97.20;;;5.12;65.79;100834.03;10341866;28;96734;-81
2022/04/13 06:02:06;;;;;;;10.03;5.53;;;6.60;96.50;;;5.39;64.08;100837.16;10377419;28;96646;-81
2022/04/13 06:07:10;;;;;;;13.80;6.23;;;6.80;95.60;;;5.68;63.63;100842.78;10352677;28;96948;-80
2022/04/13 06:12:22;;;;;;;8.33;4.70;;;7.10;94.30;;;5.96;61.57;100846.75;10375127;28;96482;-81
2022/04/13 06:17:25;;;;;;;8.10;4.22;;;7.40;93.40;;;6.19;60.39;100849.38;10338172;28;96621;-81
2022/04/13 06:22:39;;;;;;;7.97;5.00;;;7.60;92.30;;;6.43;59.93;100842.94;10379440;28;96511;-80
2022/04/13 06:27:44;;;;;;;10.43;4.87;;;7.80;91.10;;;6.68;59.68;100846.19;10374578;28;96582;-80
2022/04/13 06:32:47;;;;;;;8.60;4.83;;;8.10;90.00;;;6.94;57.88;100854.56;10350802;28;96571;-80
2022/04/13 06:37:51;;;;;;;7.90;4.87;;;8.30;88.70;;;7.22;58.04;100861.03;10353811;28;96511;-80
2022/04/13 06:42:58;;;;;;;7.60;4.33;;;8.60;88.10;;;7.49;57.26;100863.09;10350577;28;96946;-81
2022/04/13 06:48:02;;;;;;;9.50;4.77;;;8.90;83.00;;;7.70;55.01;100858.63;10378346;28;96860;-81
2022/04/13 06:53:09;;;;;;;7.43;3.93;;;9.10;81.60;;;7.96;54.32;100850.22;10354012;28;97021;-80
2022/04/13 06:58:12;;;;;;;7.70;4.50;;;9.40;80.80;;;8.19;53.32;100849.00;10336762;28;97705;-80
2022/04/13 07:03:16;;;;;;;7.03;4.27;;;9.60;78.70;;;8.44;52.45;100855.63;10344950;28;96644;-81
2022/04/13 07:08:19;;;;;;;11.83;4.50;;;9.80;77.20;;;8.67;50.95;100850.06;10337000;28;96498;-81
2022/04/13 07:13:22;;;;;;;8.67;4.70;;;10.10;75.00;;;8.91;51.49;100854.94;10365192;28;98312;-81
2022/04/13 07:18:25;;;;;;;6.93;4.43;;;10.30;74.40;;;9.14;50.99;100853.66;10349929;28;96548;-81
2022/04/13 07:23:28;;;;;;;7.40;4.87;;;10.50;73.20;;;9.39;50.60;100863.63;10352076;28;96608;-81
2022/04/13 07:28:31;;;;;;;7.73;4.40;;;10.80;72.20;;;9.68;50.01;100854.75;10309471;28;96724;-81
2022/04/13 07:33:34;;;;;;;9.27;4.20;;;11.10;71.20;;;10.40;48.91;100856.59;10339441;28;96482;-81
2022/04/13 07:38:37;;;;;;;8.60;4.33;;;11.60;71.60;;;11.98;47.10;100854.72;10344596;28;96514;-81
2022/04/13 07:43:40;;;;;;;7.25;4.03;;;12.30;70.90;;;13.69;44.29;100837.94;10340429;28;96908;-80
2022/04/13 07:48:44;;;;;;;10.40;4.65;;;13.30;70.30;;;15.03;39.80;100839.47;10341569;28;96560;-81
2022/04/13 07:53:48;;;;;;;7.00;4.45;;;14.30;66.50;;;15.95;36.63;100839.97;10350583;28;97075;-80
2022/04/13 07:58:51;;;;;;;6.13;4.03;;;15.00;60.80;;;16.63;35.14;100830.63;10346950;28;96528;-80
2022/04/13 08:03:53;;;;;;;8.05;4.20;;;15.50;57.50;;;17.14;33.78;100827.78;10314108;28;96563;-81
2022/04/13 08:09:16;;;;;;;7.15;4.07;;;15.90;55.40;;;17.48;32.52;100831.53;10376401;28;96503;-80
2022/04/13 08:14:21;;;;;;;9.40;4.20;;;16.30;53.50;;;16.95;30.18;100826.59;10361129;28;96620;-82
2022/04/13 08:19:24;;;;;;;6.88;3.90;;;16.50;50.00;;;16.48;31.97;100837.91;10351595;28;96490;-81
2022/04/13 08:24:27;;;;;;;7.05;4.30;;;16.50;49.90;;;16.15;31.70;100840.25;10334345;28;97001;-81
2022/04/13 08:29:30;;;;;;;7.63;4.45;;;16.40;48.90;;;15.74;32.26;100841.59;10342042;28;97343;-81
2022/04/13 08:34:33;;;;;;;6.75;4.82;;;16.40;48.10;;;15.49;33.60;100832.97;10338757;28;96551;-82
2022/04/13 08:39:37;;;;;;;8.32;5.13;;;16.30;48.60;;;15.23;33.91;100830.75;10333663;28;96521;-82
2022/04/13 08:44:46;;;;;;;5.57;3.97;;;16.30;48.10;;;14.99;34.56;100833.63;10343023;28;96712;-81
2022/04/13 08:49:52;;;;;;;8.52;4.82;;;16.20;48.10;;;15.10;35.29;100827.00;10333633;28;96656;-81
2022/04/13 08:55:11;;;;;;;10.75;4.25;;;16.30;48.90;;;15.34;34.30;100823.25;10339157;28;96678;-81
2022/04/13 09:00:22;;;;;;;6.18;4.28;;;16.40;48.00;;;15.63;32.72;100822.47;10328048;28;96666;-81
2022/04/13 09:05:32;;;;;;;7.57;3.55;;;16.60;47.20;;;15.77;33.28;100824.28;10389151;28;96497;-81
2022/04/13 09:10:36;;;;;;;6.47;3.17;;;16.80;47.30;;;15.87;32.69;100819.47;10344577;28;96514;-81
2022/04/13 09:15:41;;;;;;;6.20;3.78;;;16.90;46.20;;;15.74;29.23;100822.81;10330304;28;96752;-80
2022/04/13 09:20:51;;;;;;;5.78;3.35;;;17.00;43.90;;;15.78;31.74;100813.41;10346529;28;96578;-81
2022/04/13 09:25:57;;;;;;;7.82;3.58;;;17.00;44.50;;;16.03;32.02;100808.56;10348563;28;96561;-84
2022/04/13 09:31:00;;;;;;;5.07;2.85;;;17.20;45.00;;;16.31;31.20;100802.44;10342222;28;96637;-84
2022/04/13 09:36:03;;;;;;;6.72;3.10;;;17.40;44.40;;;16.54;30.54;100786.16;10348705;28;96593;-84
2022/04/13 09:41:09;;;;;;;5.55;3.33;;;17.60;43.70;;;17.08;29.94;100788.28;10334266;28;98208;-80
2022/04/13 09:46:27;;;;;;;6.75;3.83;;;18.00;43.10;;;17.73;29.34;100787.03;10328656;28;97137;-81
2022/04/13 09:51:38;;;;;;;6.15;3.45;;;18.50;43.20;;;18.10;28.08;100783.00;10332487;28;96830;-79
2022/04/13 09:56:47;;;;;;;5.78;3.50;;;18.90;42.40;;;17.99;27.75;100780.91;10337639;28;96488;-80
2022/04/13 10:01:50;;;;;;;4.68;3.35;;;18.90;41.10;;;18.33;27.37;100776.44;10370166;28;96581;-81
2022/04/13 10:06:53;;;;;;;5.82;3.72;;;18.90;40.80;;;18.57;27.01;100770.47;10344057;28;97427;-82
2022/04/13 10:12:03;;;;;;;6.43;3.60;;;19.20;40.90;;;18.59;26.84;100765.72;10347561;28;96662;-80
2022/04/13 10:17:15;;;;;;;8.40;4.00;;;19.20;40.10;;;18.56;27.07;100765.31;10355094;28;96950;-82
2022/04/13 10:22:18;;;;;;;7.82;3.83;;;19.30;40.50;;;18.67;26.93;100753.94;10323866;28;96570;-82
2022/04/13 10:27:25;;;;;;;8.38;4.63;;;19.50;40.20;;;18.87;27.30;100754.75;10319919;28;96545;-82
2022/04/13 10:32:28;;;;;;;8.38;4.10;;;20.00;40.20;;;19.17;26.54;100744.34;10370744;28;96577;-80
2022/04/13 10:37:31;;;;;;;7.10;4.20;;;20.60;39.80;;;20.01;26.35;100732.63;10317920;28;96559;-80
2022/04/13 10:42:41;;;;;;;7.70;4.45;;;21.40;39.80;;;20.93;24.33;100729.44;10329124;28;96683;-80
2022/04/13 10:47:54;;;;;;;;;;;22.10;38.10;;;21.76;23.84;100724.34;10344131;28;96482;-80
2022/04/13 10:53:00;;;;;;;6.72;4.60;;;22.70;36.50;;;21.81;23.76;100719.06;10337957;28;97172;-81
2022/04/13 10:58:42;;;;;;;6.20;4.32;;;22.90;37.10;;;21.67;22.15;100712.19;10352469;28;96519;-85
2022/04/13 11:03:47;;;;;;;6.93;4.82;;;23.00;35.50;;;21.68;23.08;100710.31;10306103;28;96838;-84
2022/04/13 11:09:03;;;;;;;7.18;4.78;;;23.00;36.00;;;22.32;21.84;100700.66;10318923;28;98303;-83
2022/04/13 11:14:24;;;;;;;6.68;4.75;;;23.50;35.90;;;23.09;20.93;100696.00;10304967;28;96612;-80
2022/04/13 11:19:27;;;;;;;7.43;5.22;;;24.10;35.00;;;23.55;21.13;100693.38;10326801;28;97063;-81
2022/04/13 11:24:49;;;;;;;7.07;4.93;;;24.50;35.00;;;23.63;20.10;100683.00;10349194;28;98162;-81
2022/04/13 11:30:04;;;;;;;7.57;5.35;;;24.90;33.60;;;24.17;20.58;100679.88;10358353;28;96848;-80
2022/04/13 11:35:25;;;;;;;7.00;5.10;;;25.20;34.00;;;24.57;20.73;100666.16;10335958;28;96506;-81
2022/04/13 11:40:27;;;;;;;7.15;5.03;;;25.50;33.90;;;24.78;19.58;100659.97;10371066;28;97123;-80
2022/04/13 11:45:31;;;;;;;8.45;5.82;;;25.80;33.10;;;24.69;18.83;100661.44;10359547;28;96695;-81
2022/04/13 11:50:36;;;;;;;7.90;5.93;;;25.80;32.20;;;24.32;20.14;100665.75;10334283;28;96507;-81
2022/04/13 11:55:46;;;;;;;8.73;5.72;;;25.50;32.60;;;24.44;19.82;100655.63;10336918;28;98324;-80
2022/04/13 12:00:59;;;;;;;8.55;6.18;;;25.50;32.30;;;24.45;19.75;100649.94;10355140;28;96955;-81
2022/04/13 12:06:11;;;;;;;7.82;5.53;;;25.80;32.40;;;24.83;19.63;100646.44;10330305;28;96722;-80
2022/04/13 12:11:38;;;;;;;7.85;5.20;;;26.00;32.50;;;25.07;20.07;100635.38;10326559;28;96708;-81
2022/04/13 12:16:45;;;;;;;10.48;5.93;;;26.30;32.60;;;25.05;18.74;100618.47;10353713;28;96889;-80
2022/04/13 12:21:52;;;;;;;8.43;5.90;;;26.30;32.00;;;24.95;19.33;100618.28;10314440;28;96526;-81
2022/04/13 12:26:55;;;;;;;7.53;5.25;;;26.20;32.10;;;24.70;20.27;100618.78;10307735;28;96521;-80
2022/04/13 12:31:58;;;;;;;8.98;6.30;;;25.80;32.30;;;23.99;19.37;100615.78;10303380;28;96662;-80
2022/04/13 12:37:03;;;;;;;9.13;6.63;;;25.20;31.50;;;24.07;20.52;100604.53;10332426;28;96594;-80
2022/04/13 12:42:06;;;;;;;9.38;6.00;;;24.90;32.60;;;23.90;20.90;100606.41;10332208;28;96409;-81
2022/04/13 12:47:11;;;;;;;10.80;6.35;;;24.60;33.10;;;23.53;20.50;100584.31;10357179;28;96508;-81
2022/04/13 12:52:14;;;;;;;11.25;6.43;;;24.30;32.50;;;23.35;19.69;100588.03;10310505;28;96718;-81
2022/04/13 12:57:18;;;;;;;8.55;6.10;;;24.30;32.20;;;23.18;20.57;100585.28;10332652;28;97161;-81
2022/04/13 13:02:21;;;;;;;9.82;6.30;;;24.50;32.50;;;22.78;22.05;100580.63;10306935;28;96655;-80
2022/04/13 13:07:30;;;;;;;11.80;7.53;;;24.50;32.90;;;22.60;22.27;100580.78;10317261;28;96500;-81
2022/04/13 13:12:34;;;;;;;10.95;6.38;;;24.60;32.90;;;22.57;21.16;100570.44;10335997;28;98832;-81
2022/04/13 13:17:42;;;;;;;9.77;6.53;;;24.90;32.20;;;23.20;20.41;100556.84;10339725;28;96625;-80
2022/04/13 13:22:50;;;;;;;8.80;5.67;;;25.50;32.10;;;24.15;20.47;100547.09;10348175;28;96904;-80
2022/04/13 13:27:58;;;;;;;7.47;5.80;;;26.40;31.90;;;24.22;19.97;100545.00;10368292;28;97512;-80
2022/04/13 13:33:08;;;;;;;9.25;6.18;;;26.80;31.20;;;24.23;19.78;100546.69;10305938;28;96553;-81
2022/04/13 13:38:19;;;;;;;8.43;6.03;;;26.60;30.90;;;24.93;19.59;100541.63;10290856;28;96589;-80
2022/04/13 13:43:25;;;;;;;9.05;6.30;;;27.10;31.10;;;25.08;18.71;100530.97;10321366;28;96687;-80
2022/04/13 13:48:28;;;;;;;9.68;6.85;;;27.40;30.40;;;25.21;18.95;100530.53;10330601;28;96537;-80
2022/04/13 13:53:31;;;;;;;8.57;6.18;;;27.50;30.80;;;25.44;18.25;100525.88;10341046;28;97235;-81
2022/04/13 13:58:34;;;;;;;9.30;6.93;;;27.50;30.20;;;24.65;17.79;100518.19;10347668;28;96551;-81
2022/04/13 14:03:37;;;;;;;14.60;6.88;;;27.20;29.40;;;24.73;19.05;100523.19;10336844;28;96615;-81
2022/04/13 14:08:40;;;;;;;11.63;7.72;;;26.80;30.10;;;24.50;18.37;100516.91;10313399;28;96614;-80
2022/04/13 14:13:43;;;;;;;9.07;6.47;;;26.50;30.00;;;24.75;18.94;100515.59;10325525;28;97759;-81
2022/04/13 14:18:46;;;;;;;10.73;7.07;;;26.50;30.40;;;24.95;18.53;100507.69;10332625;28;96693;-81
2022/04/13 14:23:49;;;;;;;8.65;6.75;;;26.80;30.30;;;24.80;19.18;100500.16;10319243;28;96577;-80
2022/04/13 14:28:52;;;;;;;11.40;7.28;;;26.60;30.40;;;24.77;18.93;100502.56;10330596;28;96725;-82
2022/04/13 14:33:55;;;;;;;14.57;8.68;;;26.50;30.40;;;24.78;19.11;100502.31;10336895;28;96390;-80
2022/04/13 14:38:58;;;;;;;11.90;6.72;;;26.50;30.40;;;24.58;18.79;100491.19;10337495;28;97475;-80
2022/04/13 14:44:01;;;;;;;8.75;6.63;;;26.50;29.90;;;24.32;18.50;100500.06;10314113;28;96525;-80
2022/04/13 14:49:04;;;;;;;12.10;6.10;;;26.20;29.90;;;24.54;18.66;100501.78;10303323;28;96527;-80
2022/04/13 14:54:14;;;;;;;9.13;7.00;;;26.30;30.00;;;24.14;18.05;100495.75;10325160;28;96761;-80
2022/04/13 14:59:17;;;;;;;8.77;5.97;;;25.90;29.40;;;23.85;18.21;100498.59;10322031;28;96591;-81
2022/04/13 15:04:23;;;;;;;9.57;6.40;;;25.60;29.40;;;24.03;18.19;100502.94;10295535;28;96559;-81
2022/04/13 15:09:26;;;;;;;10.43;5.78;;;25.80;29.60;;;24.33;18.60;100507.16;10314997;28;96440;-82
2022/04/13 15:14:29;;;;;;;8.43;5.40;;;25.80;29.70;;;24.29;18.07;100499.50;10325783;28;96928;-81
2022/04/13 15:19:33;;;;;;;10.48;6.10;;;25.90;29.50;;;23.89;18.28;100513.31;10355702;28;96589;-82
2022/04/13 15:24:36;;;;;;;11.15;6.38;;;25.50;30.00;;;23.46;19.09;100500.38;10341055;28;96599;-82
2022/04/13 15:29:39;;;;;;;8.23;6.00;;;25.20;30.00;;;23.19;19.12;100501.00;10344925;28;96699;-81
2022/04/13 15:34:42;;;;;;;8.93;6.38;;;24.90;30.20;;;23.28;19.20;100482.44;10326071;28;96842;-81
2022/04/13 15:39:45;;;;;;;9.13;6.00;;;24.80;30.20;;;23.46;19.00;100479.50;10312933;28;96838;-81
2022/04/13 15:44:48;;;;;;;7.90;5.38;;;24.80;30.00;;;23.24;19.04;100470.44;10343863;28;96520;-81
2022/04/13 15:49:53;;;;;;;8.85;6.00;;;24.80;30.10;;;23.18;19.82;100476.84;10317947;28;96645;-81
2022/04/13 15:54:56;;;;;;;7.68;5.82;;;24.60;30.40;;;22.51;20.35;100487.44;10360588;28;96709;-81
2022/04/13 15:59:59;;;;;;;9.13;5.70;;;24.10;30.70;;;21.97;20.80;100493.03;10370580;28;96452;-81
2022/04/13 16:05:03;;;;;;;10.75;6.90;;;23.60;31.30;;;21.28;20.68;100487.25;10311707;28;97444;-82
2022/04/13 16:10:07;;;;;;;8.80;5.03;;;23.00;31.20;;;20.84;20.52;100493.91;10346368;28;96596;-82
2022/04/13 16:15:10;;;;;;;9.25;6.32;;;22.50;31.40;;;20.27;21.20;100501.41;10374261;28;96823;-81
2022/04/13 16:20:19;;;;;;;8.65;5.40;;;22.00;31.80;;;19.69;22.58;100515.25;10319179;28;98458;-81
2022/04/13 16:25:26;;;;;;;7.47;5.03;;;21.40;32.30;;;18.99;22.39;100513.38;10347353;28;96497;-81
2022/04/13 16:30:29;;;;;;;8.73;5.07;;;20.80;32.60;;;18.54;24.28;100527.88;10328394;28;96706;-81
2022/04/13 16:35:32;;;;;;;6.65;4.82;;;20.30;33.50;;;18.13;24.59;100531.66;10318933;28;96709;-81
2022/04/13 16:40:35;;;;;;;9.43;4.45;;;19.80;33.90;;;17.83;25.24;100533.97;10346371;28;96516;-81
2022/04/13 16:45:58;;;;;;;7.90;4.15;;;19.50;34.50;;;17.50;27.31;100534.72;10355238;28;96615;-81
2022/04/13 16:51:02;;;;;;;8.50;5.15;;;19.10;35.70;;;17.15;29.01;100539.41;10334835;28;96502;-81
2022/04/13 16:56:05;;;;;;;13.63;7.28;;;18.80;37.10;;;16.81;30.31;100540.34;10334226;28;96425;-81
2022/04/13 17:01:08;;;;;;;10.15;5.20;;;18.50;38.30;;;16.43;31.05;100540.72;10348579;28;96577;-81
2022/04/13 17:06:11;;;;;;;11.70;5.40;;;18.10;38.70;;;15.99;31.35;100544.56;10327211;28;96692;-81
2022/04/13 17:11:15;;;;;;;8.32;4.47;;;17.70;39.30;;;15.64;31.99;100538.31;10296548;28;96691;-80
2022/04/13 17:16:20;;;;;;;9.43;4.70;;;17.30;39.80;;;15.33;32.52;100535.09;10333679;28;96961;-81
2022/04/13 17:21:24;;;;;;;11.07;5.40;;;17.00;40.40;;;15.02;33.11;100543.41;10323071;28;96602;-82
2022/04/13 17:26:27;;;;;;;10.13;5.25;;;16.70;41.00;;;14.70;32.87;100545.50;10364611;28;96923;-83
2022/04/13 17:31:30;;;;;;;10.48;4.53;;;16.40;41.10;;;14.35;33.98;100552.38;10347724;28;96633;-82
2022/04/13 17:36:33;;;;;;;7.35;4.82;;;16.10;41.40;;;14.02;34.54;100552.69;10339403;28;98052;-82
2022/04/13 17:41:36;;;;;;;7.18;4.65;;;15.70;42.00;;;13.73;34.94;100564.13;10354117;28;96854;-82
2022/04/13 17:46:39;;;;;;;11.73;4.50;;;15.40;42.50;;;13.44;35.70;100556.88;10316391;28;96614;-83
2022/04/13 17:51:42;;;;;;;7.27;4.60;;;15.20;43.00;;;13.17;36.12;100558.19;10298492;28;96448;-82
2022/04/13 17:56:45;;;;;;;12.77;4.93;;;14.90;43.20;;;12.93;36.77;100559.13;10352607;28;96507;-80
2022/04/13 18:01:53;;;;;;;8.40;4.97;;;14.60;43.80;;;12.75;37.11;100556.72;10375102;28;96450;-82
2022/04/13 18:06:56;;;;;;;10.13;5.17;;;14.40;44.20;;;12.58;37.47;100563.94;10314784;28;96441;-83
2022/04/13 18:12:00;;;;;;;7.80;4.53;;;14.20;44.80;;;12.41;37.79;100566.81;10349549;28;96571;-82
2022/04/13 18:17:04;;;;;;;8.73;4.90;;;14.00;45.20;;;12.18;40.43;100569.41;10339571;28;96571;-83
2022/04/13 18:22:07;;;;;;;11.70;6.57;;;13.80;47.30;;;11.95;40.88;100583.41;10340032;28;96520;-82
2022/04/13 18:27:10;;;;;;;13.67;7.73;;;13.60;47.40;;;11.71;41.67;100596.69;10345183;28;96609;-82
2022/04/13 18:32:15;;;;;;;13.23;7.03;;;13.40;48.20;;;11.50;41.82;100605.13;10330024;28;96446;-82
2022/04/13 18:37:18;;;;;;;12.97;7.60;;;13.10;48.50;;;11.33;43.30;100608.75;10295989;28;96721;-82
2022/04/13 18:42:21;;;;;;;15.00;7.53;;;13.00;49.90;;;11.19;43.50;100618.19;10322580;28;96671;-82
2022/04/13 18:47:24;;;;;;;15.30;6.87;;;12.80;50.00;;;11.05;44.59;100624.16;10342072;28;96567;-82
2022/04/13 18:52:28;;;;;;;14.43;6.40;;;12.60;50.80;;;10.90;44.59;100629.22;10393920;28;97237;-81
2022/04/13 18:57:31;;;;;;;13.83;6.73;;;12.50;51.00;;;10.79;44.37;100638.28;10327940;28;96656;-82
2022/04/13 19:02:34;;;;;;;12.63;6.93;;;12.40;50.90;;;10.66;45.65;100648.53;10341833;28;96781;-80
2022/04/13 19:07:37;;;;;;;12.27;6.63;;;12.30;51.90;;;10.54;46.17;100647.97;10322772;28;96603;-81
2022/04/13 19:12:40;;;;;;;14.90;8.00;;;12.20;52.20;;;10.44;47.16;100656.06;10349493;28;96649;-81
2022/04/13 19:17:44;;;;;;;12.87;6.60;;;12.10;52.90;;;10.35;46.88;100646.34;10362159;28;96674;-80
2022/04/13 19:22:47;;;;;;;14.17;6.67;;;12.00;52.70;;;10.25;47.83;100656.22;10333813;28;96803;-80
2022/04/13 19:27:50;;;;;;;15.77;7.57;;;11.90;53.80;;;10.17;48.77;100654.31;10342334;28;96650;-79
2022/04/13 19:32:52;;;;;;;17.73;7.87;;;11.80;54.70;;;10.08;49.60;100657.06;10316851;28;96537;-80
2022/04/13 19:37:55;;;;;;;16.07;8.00;;;11.70;55.40;;;9.97;50.01;100646.69;10330104;28;96447;-80
2022/04/13 19:43:18;;;;;;;13.33;7.47;;;11.60;55.70;;;9.87;49.87;100652.91;10301656;28;96517;-80
2022/04/13 19:48:22;;;;;;;18.13;8.63;;;11.50;56.10;;;9.79;50.06;100652.84;10322650;28;96572;-80
2022/04/13 19:53:25;;;;;;;16.73;7.60;;;11.40;56.00;;;9.72;50.37;100658.91;10333484;28;96497;-80
2022/04/13 19:58:28;;;;;;;21.93;8.23;;;11.30;56.50;;;9.63;51.04;100663.28;10364234;28;96582;-80
2022/04/13 20:03:31;;;;;;;18.27;8.13;;;11.30;57.20;;;9.54;50.98;100654.41;10360435;28;96535;-80
2022/04/13 20:08:34;;;;;;;20.93;9.73;;;11.10;57.10;;;9.47;51.07;100661.28;10333008;28;96745;-79
2022/04/13 20:13:37;;;;;;;17.03;7.63;;;11.10;57.30;;;9.39;51.63;100663.84;10347125;28;96469;-80
2022/04/13 20:18:41;;;;;;;22.93;9.50;;;11.00;57.50;;;9.32;52.04;100665.44;10323315;28;96623;-81
2022/04/13 20:23:44;;;;;;;21.77;9.27;;;10.90;58.00;;;9.25;51.76;100672.31;10317532;28;96570;-81
2022/04/13 20:28:47;;;;;;;18.60;8.53;;;10.90;58.00;;;9.17;52.71;100681.00;10348802;28;96619;-80
2022/04/13 20:33:50;;;;;;;18.23;8.47;;;10.80;58.30;;;9.08;53.04;100692.50;10325277;28;96504;-80
2022/04/13 20:38:55;;;;;;;21.50;8.47;;;10.70;58.80;;;9.00;53.38;100687.09;10308166;28;96455;-80
2022/04/13 20:43:58;;;;;;;21.33;9.47;;;10.60;59.60;;;8.94;53.64;100688.50;10311686;28;97156;-80
2022/04/13 20:49:01;;;;;;;18.67;8.57;;;10.50;59.60;;;8.89;53.97;100684.63;10320153;28;96913;-80
2022/04/13 20:54:04;;;;;;;21.83;8.13;;;10.50;60.10;;;8.82;53.89;100687.03;10311914;28;96896;-79
2022/04/13 20:59:07;;;;;;;22.67;9.20;;;10.40;59.90;;;8.74;54.70;100684.25;10353122;28;96463;-80